Time;durP1;ratioP1;P1;durP2;ratioP2;P2;SDS_P1;SDS_P2;PMS_P1;PMS_P2;Temp;Humidity;BMP_temperature;BMP_pressure;BME280_temperature;BME280_humidity;BME280_pressure;Samples;Min_cycle;Max_cycle;Signal;HPM_P1;HPM_P2
2023/12/31 00:02:04;;;;;;;0.10;0.10;;;;;;;8.06;100.00;98541.72;5134408;27;20190;-51
2023/12/31 00:04:51;;;;;;;0.10;0.10;;;;;;;7.99;100.00;98541.25;5135976;27;20197;-50
2023/12/31 00:07:37;;;;;;;0.03;0.03;;;;;;;8.03;100.00;98537.50;5135534;27;20189;-50
2023/12/31 00:10:24;;;;;;;0.00;0.00;;;;;;;8.07;100.00;98527.59;5135717;27;20198;-51
2023/12/31 00:13:13;;;;;;;0.07;0.07;;;;;;;8.06;100.00;98533.81;5135502;27;20196;-51
2023/12/31 00:16:00;;;;;;;0.00;0.00;;;;;;;8.15;100.00;98524.47;5135549;27;20186;-51
2023/12/31 00:18:47;;;;;;;0.03;0.03;;;;;;;8.13;100.00;98521.09;5135413;27;20217;-50
2023/12/31 00:21:33;;;;;;;0.10;0.10;;;;;;;8.09;100.00;98515.16;5134892;27;20312;-51
2023/12/31 00:24:20;;;;;;;0.10;0.10;;;;;;;8.08;100.00;98510.00;5135231;27;20292;-51
2023/12/31 00:27:07;;;;;;;0.10;0.10;;;;;;;8.03;100.00;98512.94;5135326;27;20197;-50
2023/12/31 00:29:56;;;;;;;0.10;0.10;;;;;;;8.18;100.00;98498.75;5135023;27;20224;-51
2023/12/31 00:32:42;;;;;;;0.00;0.00;;;;;;;8.16;100.00;98505.06;5133689;27;20193;-50
2023/12/31 00:35:29;;;;;;;0.00;0.00;;;;;;;7.88;100.00;98488.38;5135173;27;20193;-51
2023/12/31 00:38:16;;;;;;;0.10;0.10;;;;;;;8.12;100.00;98493.88;5135144;27;20200;-51
2023/12/31 00:41:03;;;;;;;0.00;0.00;;;;;;;8.02;100.00;98493.63;5134988;27;20202;-50
2023/12/31 00:43:50;;;;;;;0.00;0.00;;;;;;;8.13;100.00;98492.09;5134974;27;20321;-50
2023/12/31 00:46:38;;;;;;;0.00;0.00;;;;;;;8.16;100.00;98476.91;5133570;27;20197;-50
2023/12/31 00:49:25;;;;;;;0.10;0.10;;;;;;;7.96;100.00;98459.72;5134565;27;20209;-51
2023/12/31 00:52:12;;;;;;;0.10;0.10;;;;;;;7.96;100.00;98462.38;5134764;27;20695;-50
2023/12/31 00:55:00;;;;;;;0.00;0.00;;;;;;;7.90;100.00;98449.56;5133877;27;20267;-50
2023/12/31 00:57:47;;;;;;;0.00;0.00;;;;;;;7.78;100.00;98444.25;5134584;27;20318;-50
2023/12/31 01:00:34;;;;;;;0.00;0.00;;;;;;;7.92;100.00;98447.69;5134696;27;20285;-50
2023/12/31 01:03:22;;;;;;;0.10;0.10;;;;;;;8.00;100.00;98447.19;5132083;27;20306;-52
2023/12/31 01:06:09;;;;;;;0.10;0.10;;;;;;;8.00;100.00;98436.63;5134203;27;20240;-52
2023/12/31 01:08:58;;;;;;;0.00;0.00;;;;;;;7.89;100.00;98428.59;5134597;27;20217;-53
2023/12/31 01:11:45;;;;;;;0.10;0.10;;;;;;;7.86;100.00;98426.16;5134342;27;20204;-52
2023/12/31 01:14:31;;;;;;;0.00;0.00;;;;;;;7.77;100.00;98426.75;5133233;27;20667;-52
2023/12/31 01:17:19;;;;;;;0.10;0.10;;;;;;;7.68;100.00;98421.13;5131770;27;20197;-52
2023/12/31 01:20:09;;;;;;;0.00;0.00;;;;;;;7.56;100.00;98429.81;5134116;27;20232;-52
2023/12/31 01:22:56;;;;;;;0.00;0.00;;;;;;;7.55;100.00;98420.22;5134172;27;20785;-53
2023/12/31 01:25:44;;;;;;;0.10;0.10;;;;;;;7.51;100.00;98434.50;5133260;27;20387;-52
2023/12/31 01:28:32;;;;;;;0.00;0.00;;;;;;;7.41;100.00;98426.34;5133331;27;20276;-52
2023/12/31 01:31:19;;;;;;;0.07;0.07;;;;;;;7.44;100.00;98417.41;5132624;27;20270;-52
2023/12/31 01:34:06;;;;;;;0.10;0.10;;;;;;;7.40;100.00;98429.91;5133409;27;20266;-52
2023/12/31 01:36:54;;;;;;;0.00;0.00;;;;;;;7.23;100.00;98416.97;5134126;27;20324;-52
2023/12/31 01:39:41;;;;;;;0.00;0.00;;;;;;;7.16;100.00;98413.88;5133898;27;20185;-53
2023/12/31 01:42:28;;;;;;;0.10;0.10;;;;;;;7.21;100.00;98418.84;5133168;27;20205;-52
2023/12/31 01:45:15;;;;;;;0.07;0.07;;;;;;;7.11;100.00;98413.31;5133980;27;20266;-53
2023/12/31 01:48:02;;;;;;;0.10;0.10;;;;;;;7.13;100.00;98406.16;5132621;28;20326;-52
2023/12/31 01:50:49;;;;;;;0.10;0.10;;;;;;;7.02;100.00;98407.75;5132670;28;20200;-52
2023/12/31 01:53:38;;;;;;;0.10;0.10;;;;;;;6.97;100.00;98404.56;5132509;28;20190;-52
2023/12/31 01:56:25;;;;;;;0.10;0.10;;;;;;;7.07;100.00;98408.34;5132840;28;20197;-52
2023/12/31 01:59:13;;;;;;;0.10;0.10;;;;;;;7.11;100.00;98408.03;5132981;28;20221;-53
2023/12/31 02:02:00;;;;;;;0.10;0.10;;;;;;;7.19;100.00;98399.66;5131536;28;20194;-52
2023/12/31 02:04:47;;;;;;;0.03;0.03;;;;;;;7.06;100.00;98393.47;5133710;28;20197;-52
2023/12/31 02:07:34;;;;;;;0.10;0.10;;;;;;;7.10;100.00;98395.81;5132429;28;20315;-52
2023/12/31 02:10:23;;;;;;;0.10;0.10;;;;;;;7.15;100.00;98387.66;5133580;28;20291;-53
2023/12/31 02:13:12;;;;;;;0.00;0.00;;;;;;;7.29;100.00;98392.03;5133634;28;20372;-52
2023/12/31 02:15:58;;;;;;;0.10;0.10;;;;;;;7.23;100.00;98382.72;5132694;28;20255;-52
2023/12/31 02:18:45;;;;;;;0.10;0.10;;;;;;;7.29;100.00;98369.19;5133554;28;20229;-52
2023/12/31 02:21:32;;;;;;;0.10;0.10;;;;;;;7.17;100.00;98369.97;5133651;28;20213;-52
2023/12/31 02:24:21;;;;;;;0.00;0.00;;;;;;;7.21;100.00;98353.00;5132728;28;20190;-53
2023/12/31 02:27:09;;;;;;;0.10;0.10;;;;;;;7.28;100.00;98335.03;5133781;28;20194;-52
2023/12/31 02:29:59;;;;;;;0.00;0.00;;;;;;;7.21;100.00;98323.19;5133480;28;20217;-53
2023/12/31 02:32:46;;;;;;;0.10;0.10;;;;;;;7.12;100.00;98309.66;5132328;28;20308;-52
2023/12/31 02:35:34;;;;;;;0.10;0.10;;;;;;;7.15;100.00;98306.00;5133163;28;20613;-53
2023/12/31 02:38:21;;;;;;;0.10;0.10;;;;;;;7.23;100.00;98313.41;5132574;28;20205;-52
2023/12/31 02:41:08;;;;;;;0.00;0.00;;;;;;;7.13;100.00;98302.59;5133467;28;20258;-52
2023/12/31 02:43:56;;;;;;;0.00;0.00;;;;;;;7.14;100.00;98296.41;5133379;27;20192;-53
2023/12/31 02:46:42;;;;;;;0.10;0.10;;;;;;;7.12;100.00;98293.88;5135981;27;20304;-53
2023/12/31 02:49:29;;;;;;;0.10;0.10;;;;;;;7.11;100.00;98292.19;5136202;27;20209;-52
2023/12/31 02:52:16;;;;;;;0.10;0.10;;;;;;;7.14;100.00;98293.75;5136062;27;20201;-52
2023/12/31 02:55:04;;;;;;;0.07;0.07;;;;;;;6.95;100.00;98280.97;5135606;27;20205;-53
2023/12/31 02:57:51;;;;;;;0.00;0.00;;;;;;;6.93;100.00;98271.44;5137027;27;20250;-53
2023/12/31 03:00:41;;;;;;;0.10;0.10;;;;;;;6.94;100.00;98263.44;5136847;27;20189;-52
2023/12/31 03:03:27;;;;;;;0.00;0.00;;;;;;;6.98;100.00;98256.22;5134712;27;20201;-52
2023/12/31 03:06:16;;;;;;;0.00;0.00;;;;;;;6.78;100.00;98239.06;5137138;27;20192;-53
2023/12/31 03:09:03;;;;;;;0.10;0.10;;;;;;;6.88;100.00;98232.28;5136727;27;20209;-53
2023/12/31 03:11:51;;;;;;;0.10;0.10;;;;;;;6.83;100.00;98232.56;5136792;27;20261;-52
2023/12/31 03:14:38;;;;;;;0.00;0.00;;;;;;;6.98;100.00;98219.38;5136843;27;20193;-52
2023/12/31 03:17:26;;;;;;;0.10;0.10;;;;;;;6.74;100.00;98216.50;5134324;27;20304;-52
2023/12/31 03:20:13;;;;;;;0.07;0.07;;;;;;;6.82;100.00;98201.91;5136374;27;20229;-52
2023/12/31 03:23:00;;;;;;;0.03;0.03;;;;;;;6.63;100.00;98201.41;5135655;27;20197;-52
2023/12/31 03:25:48;;;;;;;0.00;0.00;;;;;;;6.71;100.00;98193.03;5136475;27;20193;-52
2023/12/31 03:28:35;;;;;;;0.10;0.10;;;;;;;6.63;100.00;98187.41;5136486;27;20235;-53
2023/12/31 03:31:23;;;;;;;0.10;0.10;;;;;;;6.66;100.00;98181.94;5134870;27;20224;-52
2023/12/31 03:34:11;;;;;;;0.00;0.00;;;;;;;6.67;100.00;98184.50;5136278;27;20202;-53
2023/12/31 03:36:58;;;;;;;0.00;0.00;;;;;;;6.59;100.00;98169.19;5135251;27;20189;-52
2023/12/31 03:39:45;;;;;;;0.00;0.00;;;;;;;6.54;100.00;98171.25;5135335;27;20184;-52
2023/12/31 03:42:32;;;;;;;0.00;0.00;;;;;;;6.54;100.00;98170.41;5136208;27;20189;-52
2023/12/31 03:45:19;;;;;;;0.10;0.10;;;;;;;6.58;100.00;98174.56;5135109;27;20193;-52
2023/12/31 03:48:06;;;;;;;0.00;0.00;;;;;;;6.60;100.00;98168.25;5134730;27;20197;-52
2023/12/31 03:50:56;;;;;;;0.00;0.00;;;;;;;6.55;100.00;98172.09;5134580;27;20332;-52
2023/12/31 03:53:43;;;;;;;0.00;0.00;;;;;;;6.64;100.00;98163.63;5135044;27;20185;-52
2023/12/31 03:56:31;;;;;;;0.10;0.10;;;;;;;6.66;100.00;98180.19;5135115;27;20189;-52
2023/12/31 03:59:18;;;;;;;0.10;0.10;;;;;;;6.57;100.00;98162.34;5135724;27;20194;-53
2023/12/31 04:02:05;;;;;;;0.00;0.00;;;;;;;6.48;100.00;98163.78;5134385;27;20231;-53
2023/12/31 04:04:52;;;;;;;0.10;0.10;;;;;;;6.53;100.00;98152.94;5135875;27;20189;-52
2023/12/31 04:07:40;;;;;;;0.10;0.10;;;;;;;6.60;100.00;98155.09;5134613;27;20198;-53
2023/12/31 04:10:27;;;;;;;0.10;0.10;;;;;;;6.54;100.00;98165.16;5135354;27;20220;-52
2023/12/31 04:13:14;;;;;;;0.00;0.00;;;;;;;6.62;100.00;98164.66;5135664;27;20189;-53
2023/12/31 04:16:00;;;;;;;0.00;0.00;;;;;;;6.51;100.00;98158.31;5134431;27;20232;-52
2023/12/31 04:18:47;;;;;;;0.10;0.10;;;;;;;6.54;100.00;98149.38;5135258;27;20237;-51
2023/12/31 04:21:34;;;;;;;0.00;0.00;;;;;;;6.54;100.00;98155.47;5134554;27;20667;-52
2023/12/31 04:24:23;;;;;;;0.07;0.07;;;;;;;6.51;100.00;98146.94;5134098;27;20197;-52
2023/12/31 04:27:09;;;;;;;0.00;0.00;;;;;;;6.66;100.00;98139.84;5135305;27;20192;-52
2023/12/31 04:29:56;;;;;;;0.10;0.10;;;;;;;6.62;100.00;98130.47;5135102;27;20197;-53
2023/12/31 04:32:43;;;;;;;0.10;0.10;;;;;;;6.71;100.00;98135.97;5133681;27;20675;-52
2023/12/31 04:35:29;;;;;;;0.10;0.10;;;;;;;6.66;100.00;98114.41;5135148;27;20270;-51
2023/12/31 04:38:16;;;;;;;0.00;0.00;;;;;;;6.94;100.00;98086.25;5135159;27;20243;-52
2023/12/31 04:41:05;;;;;;;0.10;0.10;;;;;;;6.82;100.00;98112.44;5135053;27;20192;-52
2023/12/31 04:43:52;;;;;;;0.00;0.00;;;;;;;6.76;100.00;98109.38;5133996;27;20710;-53
2023/12/31 04:46:40;;;;;;;0.00;0.00;;;;;;;6.87;100.00;98105.09;5132582;27;20189;-52
2023/12/31 04:49:27;;;;;;;0.00;0.00;;;;;;;6.84;100.00;98094.75;5134874;27;20239;-52
2023/12/31 04:52:14;;;;;;;0.00;0.00;;;;;;;6.83;100.00;98092.22;5134516;27;20343;-52
2023/12/31 04:55:01;;;;;;;0.00;0.00;;;;;;;6.91;100.00;98083.84;5134893;27;20184;-53
2023/12/31 04:57:50;;;;;;;0.00;0.00;;;;;;;6.78;100.00;98083.81;5134648;27;20204;-53
2023/12/31 05:00:37;;;;;;;0.03;0.03;;;;;;;6.85;100.00;98082.44;5133729;27;20245;-52
2023/12/31 05:03:24;;;;;;;0.00;0.00;;;;;;;6.91;100.00;98075.94;5133584;27;20189;-53
2023/12/31 05:06:11;;;;;;;0.10;0.10;;;;;;;6.81;100.00;98065.16;5134390;27;20205;-52
2023/12/31 05:08:58;;;;;;;0.10;0.10;;;;;;;6.98;100.00;98064.06;5134442;27;20193;-52
2023/12/31 05:11:45;;;;;;;0.00;0.00;;;;;;;6.79;100.00;98067.06;5134221;27;20221;-52
2023/12/31 05:14:33;;;;;;;0.00;0.00;;;;;;;6.81;100.00;98054.66;5134187;27;20228;-52
2023/12/31 05:17:20;;;;;;;0.00;0.00;;;;;;;6.87;100.00;98055.09;5133194;27;20268;-52
2023/12/31 05:20:09;;;;;;;0.10;0.10;;;;;;;6.79;100.00;98053.91;5134136;27;20632;-52
2023/12/31 05:22:56;;;;;;;0.00;0.00;;;;;;;6.75;100.00;98055.03;5134263;27;20267;-52
2023/12/31 05:25:42;;;;;;;0.00;0.00;;;;;;;6.81;100.00;98044.13;5134313;27;20556;-52
2023/12/31 05:28:29;;;;;;;0.10;0.10;;;;;;;6.72;100.00;98040.31;5134238;27;20300;-52
2023/12/31 05:31:18;;;;;;;0.10;0.10;;;;;;;6.84;100.00;98036.00;5132504;27;20217;-52
2023/12/31 05:34:04;;;;;;;0.00;0.00;;;;;;;6.87;100.00;98051.63;5134134;27;20267;-52
2023/12/31 05:36:51;;;;;;;0.10;0.10;;;;;;;6.81;100.00;98047.59;5134004;27;20189;-52
2023/12/31 05:39:38;;;;;;;0.00;0.00;;;;;;;6.87;100.00;98035.81;5133851;27;20193;-53
2023/12/31 05:42:27;;;;;;;0.00;0.00;;;;;;;6.82;100.00;98035.28;5134130;27;20194;-52
2023/12/31 05:45:14;;;;;;;0.00;0.00;;;;;;;6.83;100.00;98023.81;5134085;27;20190;-52
2023/12/31 05:48:02;;;;;;;0.10;0.10;;;;;;;6.58;100.00;98009.66;5132657;27;20679;-50
2023/12/31 05:50:49;;;;;;;0.10;0.10;;;;;;;6.66;100.00;98014.44;5133694;28;20205;-50
2023/12/31 05:53:36;;;;;;;0.10;0.10;;;;;;;6.53;100.00;98001.22;5134041;28;20246;-50
2023/12/31 05:56:22;;;;;;;0.00;0.00;;;;;;;6.53;100.00;97997.75;5133907;28;20197;-50
2023/12/31 05:59:09;;;;;;;0.10;0.10;;;;;;;6.52;100.00;97991.66;5134021;28;20246;-50
2023/12/31 06:01:56;;;;;;;0.00;0.00;;;;;;;6.49;100.00;97978.72;5132635;28;20186;-51
2023/12/31 06:04:45;;;;;;;0.10;0.10;;;;;;;6.51;100.00;97979.44;5133757;28;20193;-50
2023/12/31 06:07:32;;;;;;;0.00;0.00;;;;;;;6.59;100.00;97981.56;5134038;28;20315;-50
2023/12/31 06:10:19;;;;;;;0.10;0.10;;;;;;;6.57;100.00;97965.91;5133849;28;20189;-50
2023/12/31 06:13:06;;;;;;;0.00;0.00;;;;;;;6.57;100.00;97962.44;5133498;28;20190;-50
2023/12/31 06:15:53;;;;;;;0.00;0.00;;;;;;;6.57;100.00;97967.69;5133785;28;20193;-50
2023/12/31 06:18:40;;;;;;;0.10;0.10;;;;;;;6.67;100.00;97965.28;5133641;27;20307;-50
2023/12/31 06:21:28;;;;;;;0.00;0.00;;;;;;;6.76;100.00;97956.78;5137875;27;20577;-50
2023/12/31 06:24:15;;;;;;;0.10;0.10;;;;;;;6.76;100.00;97951.50;5137789;27;20193;-50
2023/12/31 06:27:02;;;;;;;0.10;0.10;;;;;;;6.84;100.00;97933.38;5137705;27;20189;-50
2023/12/31 06:29:50;;;;;;;0.10;0.10;;;;;;;6.75;100.00;97941.91;5137610;27;20192;-50
2023/12/31 06:32:37;;;;;;;0.00;0.00;;;;;;;6.83;100.00;97936.97;5136214;27;20221;-51
2023/12/31 06:35:24;;;;;;;0.10;0.10;;;;;;;6.91;100.00;97932.03;5137489;27;20272;-51
2023/12/31 06:38:12;;;;;;;0.10;0.10;;;;;;;6.89;100.00;97918.13;5137588;27;20239;-51
2023/12/31 06:40:59;;;;;;;0.10;0.10;;;;;;;6.98;100.00;97912.22;5137390;27;20247;-51
2023/12/31 06:43:46;;;;;;;0.10;0.10;;;;;;;7.00;100.00;97912.13;5137401;27;20193;-50
2023/12/31 06:46:33;;;;;;;0.10;0.10;;;;;;;6.99;100.00;97902.53;5136142;27;20185;-50
2023/12/31 06:49:20;;;;;;;0.10;0.10;;;;;;;7.04;100.00;97906.53;5137317;27;20193;-51
2023/12/31 06:52:07;;;;;;;0.10;0.10;;;;;;;7.10;100.00;97903.47;5137024;27;20213;-50
2023/12/31 06:54:55;;;;;;;0.10;0.10;;;;;;;7.13;100.00;97912.94;5137143;27;20193;-50
2023/12/31 06:57:42;;;;;;;0.00;0.00;;;;;;;7.15;100.00;97898.75;5137096;27;20251;-50
2023/12/31 07:00:28;;;;;;;0.00;0.00;;;;;;;7.16;100.00;97913.59;5137008;27;20197;-50
2023/12/31 07:03:15;;;;;;;0.10;0.10;;;;;;;7.18;100.00;97911.69;5135624;27;20197;-51
2023/12/31 07:06:02;;;;;;;0.00;0.00;;;;;;;7.09;100.00;97896.53;5136966;27;20193;-53
2023/12/31 07:08:49;;;;;;;0.10;0.10;;;;;;;7.06;100.00;97902.00;5136914;27;20268;-52
2023/12/31 07:11:38;;;;;;;0.10;0.10;;;;;;;7.11;100.00;97904.31;5136844;27;20219;-53
2023/12/31 07:14:26;;;;;;;0.10;0.10;;;;;;;7.05;100.00;97908.22;5136911;27;20193;-53
2023/12/31 07:17:13;;;;;;;0.00;0.00;;;;;;;6.97;100.00;97907.91;5135306;27;20672;-52
2023/12/31 07:20:00;;;;;;;0.10;0.10;;;;;;;6.97;100.00;97896.56;5136258;27;20736;-52
2023/12/31 07:22:47;;;;;;;0.00;0.00;;;;;;;7.10;100.00;97900.84;5136615;27;20232;-52
2023/12/31 07:25:34;;;;;;;0.10;0.10;;;;;;;7.24;100.00;97912.19;5136585;27;20300;-52
2023/12/31 07:28:22;;;;;;;0.10;0.10;;;;;;;7.25;100.00;97909.47;5136479;27;20198;-52
2023/12/31 07:31:09;;;;;;;0.00;0.00;;;;;;;7.23;100.00;97889.44;5132895;27;20259;-52
2023/12/31 07:33:55;;;;;;;0.00;0.00;;;;;;;7.37;100.00;97881.41;5136391;27;20209;-52
2023/12/31 07:36:42;;;;;;;0.00;0.00;;;;;;;7.36;100.00;97877.94;5136479;27;20197;-53
2023/12/31 07:39:31;;;;;;;0.00;0.00;;;;;;;7.41;100.00;97875.78;5136323;27;20270;-53
2023/12/31 07:42:18;;;;;;;0.00;0.00;;;;;;;7.53;100.00;97882.00;5135119;27;20271;-52
2023/12/31 07:45:08;;;;;;;0.00;0.00;;;;;;;7.57;100.00;97872.91;5136243;27;20230;-52
2023/12/31 07:47:54;;;;;;;0.00;0.00;;;;;;;7.47;100.00;97877.16;5134917;27;20197;-53
2023/12/31 07:50:41;;;;;;;0.00;0.00;;;;;;;7.68;100.00;97878.22;5136188;27;20233;-53
2023/12/31 07:53:28;;;;;;;0.10;0.10;;;;;;;7.56;100.00;97873.88;5135787;27;20248;-52
2023/12/31 07:56:15;;;;;;;0.10;0.10;;;;;;;7.57;100.00;97867.63;5135929;27;20189;-53
2023/12/31 07:59:03;;;;;;;0.00;0.00;;;;;;;7.53;100.00;97860.94;5135903;27;20212;-53
2023/12/31 08:01:52;;;;;;;0.00;0.00;;;;;;;7.61;100.00;97874.34;5134576;27;20190;-52
2023/12/31 08:04:38;;;;;;;0.10;0.10;;;;;;;7.53;100.00;97870.59;5135746;27;20200;-52
2023/12/31 08:07:25;;;;;;;0.10;0.10;;;;;;;7.56;100.00;97868.59;5135661;27;20209;-52
2023/12/31 08:10:12;;;;;;;0.00;0.00;;;;;;;7.62;100.00;97851.47;5135700;27;20194;-53
2023/12/31 08:12:59;;;;;;;0.00;0.00;;;;;;;7.60;100.00;97856.88;5135515;27;20210;-53
2023/12/31 08:15:46;;;;;;;0.10;0.10;;;;;;;7.61;100.00;97852.44;5135659;27;20689;-52
2023/12/31 08:18:35;;;;;;;0.10;0.10;;;;;;;7.59;100.00;97836.75;5135252;27;20299;-52
2023/12/31 08:21:22;;;;;;;0.00;0.00;;;;;;;7.61;100.00;97848.00;5135555;27;20238;-52
2023/12/31 08:24:09;;;;;;;0.00;0.00;;;;;;;7.58;100.00;97832.44;5135319;27;20193;-52
2023/12/31 08:26:55;;;;;;;0.00;0.00;;;;;;;7.71;100.00;97827.94;5135467;27;20197;-53
2023/12/31 08:29:42;;;;;;;0.00;0.00;;;;;;;7.72;100.00;97826.13;5135402;27;20204;-53
2023/12/31 08:32:29;;;;;;;0.10;0.10;;;;;;;7.61;100.00;97816.38;5133645;27;20213;-52
2023/12/31 08:35:17;;;;;;;0.00;0.00;;;;;;;7.65;100.00;97817.88;5135174;27;20189;-53
2023/12/31 08:38:04;;;;;;;0.10;0.10;;;;;;;7.56;100.00;97822.97;5135060;27;20262;-52
2023/12/31 08:40:51;;;;;;;0.00;0.00;;;;;;;7.70;100.00;97820.97;5135003;27;20193;-53
2023/12/31 08:43:38;;;;;;;0.00;0.00;;;;;;;7.73;100.00;97814.66;5135009;27;20189;-53
2023/12/31 08:46:25;;;;;;;0.10;0.10;;;;;;;7.72;100.00;97815.59;5133751;27;20201;-52
2023/12/31 08:49:12;;;;;;;0.10;0.10;;;;;;;7.81;100.00;97808.81;5134894;27;20194;-52
2023/12/31 08:52:00;;;;;;;0.00;0.00;;;;;;;7.70;100.00;97813.06;5134804;27;20196;-52
2023/12/31 08:54:47;;;;;;;0.07;0.07;;;;;;;7.75;100.00;97825.94;5133779;27;20299;-52
2023/12/31 08:57:34;;;;;;;0.00;0.00;;;;;;;7.67;100.00;97815.94;5134596;27;20193;-52
2023/12/31 09:00:21;;;;;;;0.10;0.10;;;;;;;7.68;100.00;97824.69;5134656;27;20213;-52
2023/12/31 09:03:07;;;;;;;0.10;0.10;;;;;;;7.69;100.00;97831.66;5133372;27;20223;-53
2023/12/31 09:05:54;;;;;;;0.00;0.00;;;;;;;7.61;100.00;97828.72;5134640;27;20195;-52
2023/12/31 09:08:43;;;;;;;0.10;0.10;;;;;;;7.76;100.00;97830.25;5134617;27;20185;-52
2023/12/31 09:11:30;;;;;;;0.10;0.10;;;;;;;7.75;100.00;97826.78;5134600;27;20269;-52
2023/12/31 09:14:17;;;;;;;0.10;0.10;;;;;;;7.70;100.00;97834.16;5134088;27;20338;-52
2023/12/31 09:17:04;;;;;;;0.10;0.10;;;;;;;7.55;100.00;97823.94;5133101;27;20197;-53
2023/12/31 09:19:51;;;;;;;0.10;0.10;;;;;;;7.46;100.00;97813.09;5133557;27;20682;-52
2023/12/31 09:22:38;;;;;;;0.10;0.10;;;;;;;7.48;100.00;97815.63;5134196;27;20190;-53
2023/12/31 09:25:26;;;;;;;0.10;0.10;;;;;;;7.40;100.00;97817.97;5134273;27;20672;-52
2023/12/31 09:28:13;;;;;;;0.10;0.10;;;;;;;7.45;100.00;97813.22;5134236;27;20194;-52
2023/12/31 09:31:00;;;;;;;0.10;0.10;;;;;;;7.46;100.00;97812.25;5132708;27;20200;-53
2023/12/31 09:33:47;;;;;;;0.10;0.10;;;;;;;7.60;100.00;97812.06;5133844;27;20208;-53
2023/12/31 09:36:34;;;;;;;0.03;0.03;;;;;;;7.53;100.00;97808.22;5134089;27;20230;-50
2023/12/31 09:39:21;;;;;;;0.00;0.00;;;;;;;7.72;100.00;97807.69;5134012;27;20219;-51
2023/12/31 09:42:13;;;;;;;0.07;0.07;;;;;;;7.65;100.00;97815.22;5134233;27;20252;-50
2023/12/31 09:45:03;;;;;;;0.10;0.10;;;;;;;7.87;100.00;97808.34;5133985;27;20189;-53
2023/12/31 09:47:52;;;;;;;0.10;0.10;;;;;;;7.72;100.00;97819.09;5132474;27;20680;-53
2023/12/31 09:50:38;;;;;;;0.00;0.00;;;;;;;7.53;100.00;97794.19;5132882;27;20228;-52
2023/12/31 09:53:28;;;;;;;0.10;0.10;;;;;;;7.64;100.00;97812.72;5133616;27;20664;-53
2023/12/31 09:56:17;;;;;;;0.10;0.10;;;;;;;7.57;100.00;97812.31;5133546;28;20201;-53
2023/12/31 09:59:06;;;;;;;0.10;0.10;;;;;;;7.57;100.00;97816.75;5133875;28;20193;-52
2023/12/31 10:01:54;;;;;;;0.10;0.10;;;;;;;7.50;100.00;97810.22;5130623;28;20679;-52
2023/12/31 10:04:42;;;;;;;0.00;0.00;;;;;;;7.57;100.00;97819.38;5133953;27;20220;-53
2023/12/31 10:07:32;;;;;;;0.10;0.10;;;;;;;7.48;100.00;97826.16;5153751;27;20721;-53
2023/12/31 10:10:20;;;;;;;0.00;0.00;;;;;;;7.47;100.00;97808.66;5152135;27;20335;-53
2023/12/31 10:13:14;;;;;;;0.10;0.10;;;;;;;7.61;100.00;97799.75;5153427;27;20319;-53
2023/12/31 10:16:12;;;;;;;0.10;0.10;;;;;;;7.52;100.00;97803.88;5151737;27;20235;-53
2023/12/31 10:18:59;;;;;;;0.10;0.10;;;;;;;7.60;100.00;97798.91;5152659;27;20232;-53
2023/12/31 10:21:46;;;;;;;0.10;0.10;;;;;;;7.70;100.00;97799.06;5153540;27;20197;-53
2023/12/31 10:24:32;;;;;;;0.00;0.00;;;;;;;7.61;100.00;97786.56;5153269;27;20204;-52
2023/12/31 10:27:20;;;;;;;0.10;0.10;;;;;;;7.67;100.00;97771.16;5153041;27;20192;-52
2023/12/31 10:30:11;;;;;;;0.10;0.10;;;;;;;7.85;100.00;97774.22;5153407;27;20197;-53
2023/12/31 10:33:08;;;;;;;0.10;0.10;;;;;;;7.84;100.00;97769.06;5151682;27;20286;-52
2023/12/31 10:36:03;;;;;;;0.10;0.10;;;;;;;7.99;100.00;97760.81;5153291;27;20318;-53
2023/12/31 10:38:52;;;;;;;0.10;0.10;;;;;;;7.93;100.00;97752.56;5153483;27;20616;-53
2023/12/31 10:41:41;;;;;;;0.00;0.00;;;;;;;7.95;100.00;97754.09;5153176;27;20193;-53
2023/12/31 10:44:29;;;;;;;0.10;0.10;;;;;;;7.96;100.00;97745.25;5152052;27;20282;-53
2023/12/31 10:47:19;;;;;;;0.07;0.07;;;;;;;8.10;100.00;97740.69;5151466;27;20376;-52
2023/12/31 10:50:09;;;;;;;0.00;0.00;;;;;;;8.07;100.00;97738.31;5153331;27;20197;-52
2023/12/31 10:52:57;;;;;;;0.10;0.10;;;;;;;8.06;100.00;97721.66;5153143;27;20647;-53
2023/12/31 10:55:47;;;;;;;0.10;0.10;;;;;;;8.12;100.00;97713.28;5152942;27;20676;-53
2023/12/31 10:58:34;;;;;;;0.10;0.10;;;;;;;8.16;100.00;97717.34;5153212;27;20216;-52
2023/12/31 11:01:23;;;;;;;0.10;0.10;;;;;;;8.19;100.00;97711.81;5151833;27;20250;-53
2023/12/31 11:04:12;;;;;;;0.00;0.00;;;;;;;8.15;100.00;97699.84;5152768;27;20201;-53
2023/12/31 11:07:03;;;;;;;0.10;0.10;;;;;;;8.26;100.00;97696.38;5156159;27;20201;-52
2023/12/31 11:09:50;;;;;;;0.00;0.00;;;;;;;8.40;100.00;97701.44;5156701;27;20189;-53
2023/12/31 11:12:37;;;;;;;0.00;0.00;;;;;;;8.37;100.00;97691.13;5156749;27;20196;-53
2023/12/31 11:15:25;;;;;;;0.10;0.10;;;;;;;8.44;100.00;97688.84;5155920;27;20242;-52
2023/12/31 11:18:33;;;;;;;0.10;0.10;;;;;;;8.27;100.00;97692.78;5153165;27;20239;-53
2023/12/31 11:21:49;;;;;;;0.10;0.10;;;;;;;8.28;100.00;97697.09;5155659;27;20274;-53
2023/12/31 11:24:38;;;;;;;0.00;0.00;;;;;;;8.27;100.00;97683.06;5155989;27;20200;-53
2023/12/31 11:27:28;;;;;;;0.00;0.00;;;;;;;8.47;100.00;97694.72;5156519;27;20196;-53
2023/12/31 11:30:15;;;;;;;0.00;0.00;;;;;;;8.23;100.00;97692.19;5156319;27;20189;-52
2023/12/31 11:33:02;;;;;;;0.00;0.00;;;;;;;8.16;100.00;97696.25;5154012;27;20192;-50
2023/12/31 11:35:53;;;;;;;0.10;0.10;;;;;;;8.17;100.00;97692.66;5156310;27;20177;-51
2023/12/31 11:38:57;;;;;;;0.07;0.07;;;;;;;8.30;100.00;97679.38;5157738;27;20197;-51
2023/12/31 11:41:47;;;;;;;0.00;0.00;;;;;;;8.21;100.00;97661.63;5155916;27;20242;-50
2023/12/31 11:44:36;;;;;;;0.00;0.00;;;;;;;8.21;100.00;97661.63;5155698;27;20676;-50
2023/12/31 11:47:26;;;;;;;0.10;0.10;;;;;;;8.14;100.00;97670.97;5154128;27;20674;-50
2023/12/31 11:50:24;;;;;;;0.10;0.10;;;;;;;8.18;100.00;97665.31;5156013;27;20678;-51
2023/12/31 11:53:12;;;;;;;0.00;0.00;;;;;;;8.11;100.00;97665.94;5155838;27;20746;-50
2023/12/31 11:56:00;;;;;;;0.00;0.00;;;;;;;8.17;100.00;97654.91;5155324;27;20283;-51
2023/12/31 11:58:48;;;;;;;0.00;0.00;;;;;;;8.17;100.00;97644.34;5155952;27;20194;-51
2023/12/31 12:01:35;;;;;;;0.00;0.00;;;;;;;8.21;100.00;97666.91;5153980;27;20188;-51
2023/12/31 12:04:23;;;;;;;0.00;0.00;;;;;;;8.12;100.00;97676.34;5155446;27;20206;-51
2023/12/31 12:07:10;;;;;;;0.00;0.00;;;;;;;8.18;100.00;97675.88;5155356;27;20691;-50
2023/12/31 12:09:59;;;;;;;0.10;0.10;;;;;;;8.02;100.00;97659.59;5154888;27;20192;-50
2023/12/31 12:12:47;;;;;;;0.00;0.00;;;;;;;8.12;100.00;97646.53;5155653;27;20201;-51
2023/12/31 12:15:36;;;;;;;0.10;0.10;;;;;;;8.05;100.00;97648.78;5155001;27;20233;-50
2023/12/31 12:18:22;;;;;;;0.00;0.00;;;;;;;8.03;100.00;97656.81;5153891;27;20217;-50
2023/12/31 12:21:09;;;;;;;0.00;0.00;;;;;;;8.02;100.00;97636.69;5155188;27;20189;-50
2023/12/31 12:23:56;;;;;;;0.10;0.10;;;;;;;7.96;100.00;97645.06;5154653;27;20232;-51
2023/12/31 12:26:44;;;;;;;0.00;0.00;;;;;;;8.16;100.00;97646.16;5154233;27;20473;-50
2023/12/31 12:29:30;;;;;;;0.10;0.10;;;;;;;8.14;100.00;97639.31;5156039;27;20218;-51
2023/12/31 12:32:22;;;;;;;0.07;0.07;;;;;;;8.13;100.00;97656.94;5154881;27;20188;-51
2023/12/31 12:35:09;;;;;;;0.10;0.10;;;;;;;8.21;100.00;97666.91;5155743;27;20213;-51
2023/12/31 12:37:55;;;;;;;0.10;0.10;;;;;;;8.26;100.00;97657.66;5155943;27;20320;-51
2023/12/31 12:40:42;;;;;;;0.00;0.00;;;;;;;8.21;100.00;97670.38;5155622;27;20231;-51
2023/12/31 12:43:31;;;;;;;0.00;0.00;;;;;;;8.09;100.00;97676.56;5155783;27;20188;-50
2023/12/31 12:46:18;;;;;;;0.00;0.00;;;;;;;8.06;100.00;97681.25;5154394;27;20192;-50
2023/12/31 12:49:06;;;;;;;0.10;0.10;;;;;;;7.92;100.00;97682.34;5155730;27;20284;-50
2023/12/31 12:51:53;;;;;;;0.00;0.00;;;;;;;7.91;100.00;97683.28;5155518;27;20268;-50
2023/12/31 12:54:40;;;;;;;0.00;0.00;;;;;;;8.06;100.00;97690.00;5155624;27;20212;-51
2023/12/31 12:57:27;;;;;;;0.00;0.00;;;;;;;7.88;100.00;97696.69;5155402;27;20257;-51
2023/12/31 13:00:16;;;;;;;0.00;0.00;;;;;;;7.92;100.00;97698.16;5155540;27;20234;-51
2023/12/31 13:03:03;;;;;;;0.00;0.00;;;;;;;8.09;100.00;97695.03;5154151;27;20200;-51
2023/12/31 13:05:51;;;;;;;0.10;0.10;;;;;;;8.03;100.00;97693.72;5155133;27;20262;-53
2023/12/31 13:08:38;;;;;;;0.00;0.00;;;;;;;8.00;100.00;97693.94;5155279;27;20186;-53
2023/12/31 13:11:25;;;;;;;0.00;0.00;;;;;;;8.21;100.00;97706.47;5155221;27;20196;-53